sensor_id;sensor_type;location;lat;lon;timestamp;temperature;humidity
8780;DHT22;62328;51.19929245;4.42130175;2023-04-25T00:00:02;10.50;99.90
8780;DHT22;62328;51.19929245;4.42130175;2023-04-25T00:02:33;10.50;99.90
8780;DHT22;62328;51.19929245;4.42130175;2023-04-25T00:05:01;10.50;99.90
8780;DHT22;62328;51.19929245;4.42130175;2023-04-25T00:07:29;10.50;99.90
8780;DHT22;62328;51.19929245;4.42130175;2023-04-25T00:09:58;10.50;99.90
8780;DHT22;62328;51.19929245;4.42130175;2023-04-25T00:12:25;10.50;99.90
8780;DHT22;62328;51.19929245;4.42130175;2023-04-25T00:14:53;10.50;99.90
8780;DHT22;62328;51.19929245;4.42130175;2023-04-25T00:17:22;10.50;99.90
8780;DHT22;62328;51.19929245;4.42130175;2023-04-25T00:19:51;10.50;99.90
8780;DHT22;62328;51.19929245;4.42130175;2023-04-25T00:22:19;10.50;99.90
8780;DHT22;62328;51.19929245;4.42130175;2023-04-25T00:24:46;10.50;99.90
8780;DHT22;62328;51.19929245;4.42130175;2023-04-25T00:27:13;10.50;99.90
8780;DHT22;62328;51.19929245;4.42130175;2023-04-25T00:29:40;10.50;99.90
8780;DHT22;62328;51.19929245;4.42130175;2023-04-25T00:32:07;10.50;99.90
8780;DHT22;62328;51.19929245;4.42130175;2023-04-25T00:34:34;10.50;99.90
8780;DHT22;62328;51.19929245;4.42130175;2023-04-25T00:37:03;10.50;99.90
8780;DHT22;62328;51.19929245;4.42130175;2023-04-25T00:39:30;10.50;99.90
8780;DHT22;62328;51.19929245;4.42130175;2023-04-25T00:41:58;10.50;99.90
8780;DHT22;62328;51.19929245;4.42130175;2023-04-25T00:44:26;10.50;99.90
8780;DHT22;62328;51.19929245;4.42130175;2023-04-25T00:46:55;10.50;99.90
8780;DHT22;62328;51.19929245;4.42130175;2023-04-25T00:49:22;10.50;99.90
8780;DHT22;62328;51.19929245;4.42130175;2023-04-25T00:51:50;10.50;99.90
8780;DHT22;62328;51.19929245;4.42130175;2023-04-25T00:54:18;10.50;99.90
8780;DHT22;62328;51.19929245;4.42130175;2023-04-25T00:56:45;10.50;99.90
8780;DHT22;62328;51.19929245;4.42130175;2023-04-25T00:59:14;10.50;99.90
8780;DHT22;62328;51.19929245;4.42130175;2023-04-25T01:01:41;10.50;99.90
8780;DHT22;62328;51.19929245;4.42130175;2023-04-25T01:04:09;10.40;99.90
8780;DHT22;62328;51.19929245;4.42130175;2023-04-25T01:06:36;10.40;99.90
8780;DHT22;62328;51.19929245;4.42130175;2023-04-25T01:09:04;10.50;99.90
8780;DHT22;62328;51.19929245;4.42130175;2023-04-25T01:11:32;10.40;99.90
8780;DHT22;62328;51.19929245;4.42130175;2023-04-25T01:14:00;10.40;99.90
8780;DHT22;62328;51.19929245;4.42130175;2023-04-25T01:16:27;10.40;99.90
8780;DHT22;62328;51.19929245;4.42130175;2023-04-25T01:18:54;10.40;99.90
8780;DHT22;62328;51.19929245;4.42130175;2023-04-25T01:21:24;10.40;99.90
8780;DHT22;62328;51.19929245;4.42130175;2023-04-25T01:23:53;10.40;99.90
8780;DHT22;62328;51.19929245;4.42130175;2023-04-25T01:26:21;10.40;99.90
8780;DHT22;62328;51.19929245;4.42130175;2023-04-25T01:28:49;10.40;99.90
8780;DHT22;62328;51.19929245;4.42130175;2023-04-25T01:31:17;10.40;99.90
8780;DHT22;62328;51.19929245;4.42130175;2023-04-25T01:33:47;10.40;99.90
8780;DHT22;62328;51.19929245;4.42130175;2023-04-25T01:36:14;10.40;99.90
8780;DHT22;62328;51.19929245;4.42130175;2023-04-25T01:38:43;10.40;99.90
8780;DHT22;62328;51.19929245;4.42130175;2023-04-25T01:41:11;10.40;99.90
8780;DHT22;62328;51.19929245;4.42130175;2023-04-25T01:43:39;10.30;99.90
8780;DHT22;62328;51.19929245;4.42130175;2023-04-25T01:46:06;10.40;99.90
8780;DHT22;62328;51.19929245;4.42130175;2023-04-25T01:48:33;10.40;99.90
8780;DHT22;62328;51.19929245;4.42130175;2023-04-25T01:51:00;10.30;99.90
8780;DHT22;62328;51.19929245;4.42130175;2023-04-25T01:53:28;10.30;99.90
8780;DHT22;62328;51.19929245;4.42130175;2023-04-25T01:55:56;10.30;99.90
8780;DHT22;62328;51.19929245;4.42130175;2023-04-25T01:58:23;10.30;99.90
8780;DHT22;62328;51.19929245;4.42130175;2023-04-25T02:00:50;10.30;99.90
8780;DHT22;62328;51.19929245;4.42130175;2023-04-25T02:03:17;10.30;99.90
8780;DHT22;62328;51.19929245;4.42130175;2023-04-25T02:05:44;10.30;99.90
8780;DHT22;62328;51.19929245;4.42130175;2023-04-25T02:08:11;10.30;99.90
8780;DHT22;62328;51.19929245;4.42130175;2023-04-25T02:10:38;10.30;99.90
8780;DHT22;62328;51.19929245;4.42130175;2023-04-25T02:13:07;10.30;99.90
8780;DHT22;62328;51.19929245;4.42130175;2023-04-25T02:15:34;10.20;99.90
8780;DHT22;62328;51.19929245;4.42130175;2023-04-25T02:18:01;10.30;99.90
8780;DHT22;62328;51.19929245;4.42130175;2023-04-25T02:20:28;10.30;99.90
8780;DHT22;62328;51.19929245;4.42130175;2023-04-25T02:22:56;10.20;99.90
8780;DHT22;62328;51.19929245;4.42130175;2023-04-25T02:25:23;10.20;99.90
8780;DHT22;62328;51.19929245;4.42130175;2023-04-25T02:27:50;10.20;99.90
8780;DHT22;62328;51.19929245;4.42130175;2023-04-25T02:30:19;10.20;99.90
8780;DHT22;62328;51.19929245;4.42130175;2023-04-25T02:32:46;10.20;99.90
8780;DHT22;62328;51.19929245;4.42130175;2023-04-25T02:35:13;10.10;99.90
8780;DHT22;62328;51.19929245;4.42130175;2023-04-25T02:37:41;10.10;99.90
8780;DHT22;62328;51.19929245;4.42130175;2023-04-25T02:40:09;10.00;99.90
8780;DHT22;62328;51.19929245;4.42130175;2023-04-25T02:42:37;10.00;99.90
8780;DHT22;62328;51.19929245;4.42130175;2023-04-25T02:45:04;9.90;99.90
8780;DHT22;62328;51.19929245;4.42130175;2023-04-25T02:47:33;9.90;99.90
8780;DHT22;62328;51.19929245;4.42130175;2023-04-25T02:50:00;9.80;99.90
8780;DHT22;62328;51.19929245;4.42130175;2023-04-25T02:52:27;9.80;99.90
8780;DHT22;62328;51.19929245;4.42130175;2023-04-25T02:54:54;9.80;99.90
8780;DHT22;62328;51.19929245;4.42130175;2023-04-25T02:57:21;9.80;99.90
8780;DHT22;62328;51.19929245;4.42130175;2023-04-25T02:59:48;9.80;99.90
8780;DHT22;62328;51.19929245;4.42130175;2023-04-25T03:02:15;9.80;99.90
8780;DHT22;62328;51.19929245;4.42130175;2023-04-25T03:04:43;9.80;99.90
8780;DHT22;62328;51.19929245;4.42130175;2023-04-25T03:07:11;9.70;99.90
8780;DHT22;62328;51.19929245;4.42130175;2023-04-25T03:09:38;9.70;99.90
8780;DHT22;62328;51.19929245;4.42130175;2023-04-25T03:12:06;9.70;99.90
8780;DHT22;62328;51.19929245;4.42130175;2023-04-25T03:14:33;9.70;99.90
8780;DHT22;62328;51.19929245;4.42130175;2023-04-25T03:17:00;9.70;99.90
8780;DHT22;62328;51.19929245;4.42130175;2023-04-25T03:19:27;9.70;99.90
8780;DHT22;62328;51.19929245;4.42130175;2023-04-25T03:21:55;9.70;99.90
8780;DHT22;62328;51.19929245;4.42130175;2023-04-25T03:24:22;9.70;99.90
8780;DHT22;62328;51.19929245;4.42130175;2023-04-25T03:26:49;9.70;99.90
8780;DHT22;62328;51.19929245;4.42130175;2023-04-25T03:29:16;9.70;99.90
8780;DHT22;62328;51.19929245;4.42130175;2023-04-25T03:31:43;9.80;99.90
8780;DHT22;62328;51.19929245;4.42130175;2023-04-25T03:34:11;9.80;99.90
8780;DHT22;62328;51.19929245;4.42130175;2023-04-25T03:36:39;9.80;99.90
8780;DHT22;62328;51.19929245;4.42130175;2023-04-25T03:39:08;9.80;99.90
8780;DHT22;62328;51.19929245;4.42130175;2023-04-25T03:41:35;9.80;99.90
8780;DHT22;62328;51.19929245;4.42130175;2023-04-25T03:44:02;9.80;99.90
8780;DHT22;62328;51.19929245;4.42130175;2023-04-25T03:46:29;9.80;99.90
8780;DHT22;62328;51.19929245;4.42130175;2023-04-25T03:48:56;9.80;99.90
8780;DHT22;62328;51.19929245;4.42130175;2023-04-25T03:51:23;9.80;99.90
8780;DHT22;62328;51.19929245;4.42130175;2023-04-25T03:53:51;9.80;99.90
8780;DHT22;62328;51.19929245;4.42130175;2023-04-25T03:56:19;9.80;99.90
8780;DHT22;62328;51.19929245;4.42130175;2023-04-25T03:58:48;9.80;99.90
8780;DHT22;62328;51.19929245;4.42130175;2023-04-25T04:01:15;9.70;99.90
8780;DHT22;62328;51.19929245;4.42130175;2023-04-25T04:03:42;9.70;99.90
8780;DHT22;62328;51.19929245;4.42130175;2023-04-25T04:06:10;9.70;99.90
8780;DHT22;62328;51.19929245;4.42130175;2023-04-25T04:08:38;9.70;99.90
8780;DHT22;62328;51.19929245;4.42130175;2023-04-25T04:11:05;9.70;99.90
8780;DHT22;62328;51.19929245;4.42130175;2023-04-25T04:13:34;9.60;99.90
8780;DHT22;62328;51.19929245;4.42130175;2023-04-25T04:16:01;9.60;99.90
8780;DHT22;62328;51.19929245;4.42130175;2023-04-25T04:18:29;9.60;99.90
8780;DHT22;62328;51.19929245;4.42130175;2023-04-25T04:20:56;9.60;99.90
8780;DHT22;62328;51.19929245;4.42130175;2023-04-25T04:23:23;9.60;99.90
8780;DHT22;62328;51.19929245;4.42130175;2023-04-25T04:25:52;9.60;99.90
8780;DHT22;62328;51.19929245;4.42130175;2023-04-25T04:28:22;9.50;99.90
8780;DHT22;62328;51.19929245;4.42130175;2023-04-25T04:30:51;9.50;99.90
8780;DHT22;62328;51.19929245;4.42130175;2023-04-25T04:33:18;9.50;99.90
8780;DHT22;62328;51.19929245;4.42130175;2023-04-25T04:35:46;9.50;99.90
8780;DHT22;62328;51.19929245;4.42130175;2023-04-25T04:38:14;9.50;99.90
8780;DHT22;62328;51.19929245;4.42130175;2023-04-25T04:40:41;9.50;99.90
8780;DHT22;62328;51.19929245;4.42130175;2023-04-25T04:43:09;9.50;99.90
8780;DHT22;62328;51.19929245;4.42130175;2023-04-25T04:45:36;9.50;99.90
8780;DHT22;62328;51.19929245;4.42130175;2023-04-25T04:48:05;9.40;99.90
8780;DHT22;62328;51.19929245;4.42130175;2023-04-25T04:50:33;9.50;99.90
8780;DHT22;62328;51.19929245;4.42130175;2023-04-25T04:53:02;9.50;99.90
8780;DHT22;62328;51.19929245;4.42130175;2023-04-25T04:55:29;9.50;99.90
8780;DHT22;62328;51.19929245;4.42130175;2023-04-25T04:57:56;9.50;99.90
8780;DHT22;62328;51.19929245;4.42130175;2023-04-25T05:00:23;9.60;99.90
8780;DHT22;62328;51.19929245;4.42130175;2023-04-25T05:02:50;9.60;99.90
8780;DHT22;62328;51.19929245;4.42130175;2023-04-25T05:05:18;9.60;99.90
8780;DHT22;62328;51.19929245;4.42130175;2023-04-25T05:07:45;9.60;99.90
8780;DHT22;62328;51.19929245;4.42130175;2023-04-25T05:10:12;9.60;99.90
8780;DHT22;62328;51.19929245;4.42130175;2023-04-25T05:12:39;9.60;99.90
8780;DHT22;62328;51.19929245;4.42130175;2023-04-25T05:15:07;9.60;99.90
8780;DHT22;62328;51.19929245;4.42130175;2023-04-25T05:17:34;9.60;99.90
8780;DHT22;62328;51.19929245;4.42130175;2023-04-25T05:20:01;9.60;99.90
8780;DHT22;62328;51.19929245;4.42130175;2023-04-25T05:22:29;9.60;99.90
8780;DHT22;62328;51.19929245;4.42130175;2023-04-25T05:24:56;9.60;99.90
8780;DHT22;62328;51.19929245;4.42130175;2023-04-25T05:27:24;9.60;99.90
8780;DHT22;62328;51.19929245;4.42130175;2023-04-25T05:29:50;9.70;99.90
8780;DHT22;62328;51.19929245;4.42130175;2023-04-25T05:32:19;9.70;99.90
8780;DHT22;62328;51.19929245;4.42130175;2023-04-25T05:34:46;9.70;99.90
8780;DHT22;62328;51.19929245;4.42130175;2023-04-25T05:37:13;9.70;99.90
8780;DHT22;62328;51.19929245;4.42130175;2023-04-25T05:39:41;9.80;99.90
8780;DHT22;62328;51.19929245;4.42130175;2023-04-25T05:42:08;9.80;99.90
8780;DHT22;62328;51.19929245;4.42130175;2023-04-25T05:44:36;9.80;99.90
8780;DHT22;62328;51.19929245;4.42130175;2023-04-25T05:47:03;9.80;99.90
8780;DHT22;62328;51.19929245;4.42130175;2023-04-25T05:49:30;9.80;99.90
8780;DHT22;62328;51.19929245;4.42130175;2023-04-25T05:51:57;9.80;99.90
8780;DHT22;62328;51.19929245;4.42130175;2023-04-25T05:54:24;9.80;99.90
8780;DHT22;62328;51.19929245;4.42130175;2023-04-25T05:56:53;9.80;99.90
8780;DHT22;62328;51.19929245;4.42130175;2023-04-25T05:59:20;9.80;99.90
8780;DHT22;62328;51.19929245;4.42130175;2023-04-25T06:01:47;9.90;99.90
8780;DHT22;62328;51.19929245;4.42130175;2023-04-25T06:04:14;9.90;99.90
8780;DHT22;62328;51.19929245;4.42130175;2023-04-25T06:06:41;9.90;99.90
8780;DHT22;62328;51.19929245;4.42130175;2023-04-25T06:09:09;10.00;99.90
8780;DHT22;62328;51.19929245;4.42130175;2023-04-25T06:11:36;10.00;99.90
8780;DHT22;62328;51.19929245;4.42130175;2023-04-25T06:14:07;10.00;99.90
8780;DHT22;62328;51.19929245;4.42130175;2023-04-25T06:16:37;10.00;99.90
8780;DHT22;62328;51.19929245;4.42130175;2023-04-25T06:19:04;10.00;99.90
8780;DHT22;62328;51.19929245;4.42130175;2023-04-25T06:21:43;10.00;99.90
8780;DHT22;62328;51.19929245;4.42130175;2023-04-25T06:24:17;10.10;99.90
8780;DHT22;62328;51.19929245;4.42130175;2023-04-25T06:26:47;10.20;99.90
8780;DHT22;62328;51.19929245;4.42130175;2023-04-25T06:29:16;10.20;99.90
8780;DHT22;62328;51.19929245;4.42130175;2023-04-25T06:31:43;10.20;99.90
8780;DHT22;62328;51.19929245;4.42130175;2023-04-25T06:34:10;10.20;99.90
8780;DHT22;62328;51.19929245;4.42130175;2023-04-25T06:36:37;10.20;99.90
8780;DHT22;62328;51.19929245;4.42130175;2023-04-25T06:39:04;10.20;99.90
8780;DHT22;62328;51.19929245;4.42130175;2023-04-25T06:41:31;10.20;99.90
8780;DHT22;62328;51.19929245;4.42130175;2023-04-25T06:43:58;10.20;99.90
8780;DHT22;62328;51.19929245;4.42130175;2023-04-25T06:46:27;10.20;99.90
8780;DHT22;62328;51.19929245;4.42130175;2023-04-25T06:48:54;10.10;99.90
8780;DHT22;62328;51.19929245;4.42130175;2023-04-25T06:51:21;10.10;99.90
8780;DHT22;62328;51.19929245;4.42130175;2023-04-25T06:53:50;10.10;99.90
8780;DHT22;62328;51.19929245;4.42130175;2023-04-25T06:56:17;10.20;99.90
8780;DHT22;62328;51.19929245;4.42130175;2023-04-25T06:58:44;10.20;99.90
8780;DHT22;62328;51.19929245;4.42130175;2023-04-25T07:01:11;10.30;99.90
8780;DHT22;62328;51.19929245;4.42130175;2023-04-25T07:03:40;10.40;99.90
8780;DHT22;62328;51.19929245;4.42130175;2023-04-25T07:06:07;10.40;99.90
8780;DHT22;62328;51.19929245;4.42130175;2023-04-25T07:08:34;10.30;99.90
8780;DHT22;62328;51.19929245;4.42130175;2023-04-25T07:11:02;10.30;99.90
8780;DHT22;62328;51.19929245;4.42130175;2023-04-25T07:13:29;10.30;99.90
8780;DHT22;62328;51.19929245;4.42130175;2023-04-25T07:15:56;10.20;99.90
8780;DHT22;62328;51.19929245;4.42130175;2023-04-25T07:18:23;10.20;99.90
8780;DHT22;62328;51.19929245;4.42130175;2023-04-25T07:20:52;10.20;99.90
8780;DHT22;62328;51.19929245;4.42130175;2023-04-25T07:23:20;10.30;99.90
8780;DHT22;62328;51.19929245;4.42130175;2023-04-25T07:25:47;10.30;99.90
8780;DHT22;62328;51.19929245;4.42130175;2023-04-25T07:28:14;10.30;99.90
8780;DHT22;62328;51.19929245;4.42130175;2023-04-25T07:30:41;10.30;99.90
8780;DHT22;62328;51.19929245;4.42130175;2023-04-25T07:33:08;10.30;99.90
8780;DHT22;62328;51.19929245;4.42130175;2023-04-25T07:35:36;10.30;99.90
8780;DHT22;62328;51.19929245;4.42130175;2023-04-25T07:38:04;10.40;99.90
8780;DHT22;62328;51.19929245;4.42130175;2023-04-25T07:40:32;10.50;99.90
8780;DHT22;62328;51.19929245;4.42130175;2023-04-25T07:42:59;10.60;99.90
8780;DHT22;62328;51.19929245;4.42130175;2023-04-25T07:45:26;10.70;99.90
8780;DHT22;62328;51.19929245;4.42130175;2023-04-25T07:47:53;10.80;99.90
8780;DHT22;62328;51.19929245;4.42130175;2023-04-25T07:50:21;10.90;99.90
8780;DHT22;62328;51.19929245;4.42130175;2023-04-25T07:52:48;11.00;99.90
8780;DHT22;62328;51.19929245;4.42130175;2023-04-25T07:55:17;11.10;99.90
8780;DHT22;62328;51.19929245;4.42130175;2023-04-25T07:57:44;11.20;99.90
8780;DHT22;62328;51.19929245;4.42130175;2023-04-25T08:00:12;11.50;99.90
8780;DHT22;62328;51.19929245;4.42130175;2023-04-25T08:02:40;11.70;99.90
8780;DHT22;62328;51.19929245;4.42130175;2023-04-25T08:05:08;11.90;99.90
8780;DHT22;62328;51.19929245;4.42130175;2023-04-25T08:07:37;11.90;99.90
8780;DHT22;62328;51.19929245;4.42130175;2023-04-25T08:10:05;11.70;99.90
8780;DHT22;62328;51.19929245;4.42130175;2023-04-25T08:12:34;11.60;99.90
8780;DHT22;62328;51.19929245;4.42130175;2023-04-25T08:15:01;11.50;99.90
8780;DHT22;62328;51.19929245;4.42130175;2023-04-25T08:17:28;11.50;99.90
8780;DHT22;62328;51.19929245;4.42130175;2023-04-25T08:19:55;11.30;99.90
8780;DHT22;62328;51.19929245;4.42130175;2023-04-25T08:22:22;11.20;99.90
8780;DHT22;62328;51.19929245;4.42130175;2023-04-25T08:24:49;11.10;99.90
8780;DHT22;62328;51.19929245;4.42130175;2023-04-25T08:27:17;11.10;99.90
8780;DHT22;62328;51.19929245;4.42130175;2023-04-25T08:29:46;11.30;99.90
8780;DHT22;62328;51.19929245;4.42130175;2023-04-25T08:32:13;11.40;99.90
8780;DHT22;62328;51.19929245;4.42130175;2023-04-25T08:34:40;11.60;99.90
8780;DHT22;62328;51.19929245;4.42130175;2023-04-25T08:37:08;11.80;99.90
8780;DHT22;62328;51.19929245;4.42130175;2023-04-25T08:39:36;12.00;99.90
8780;DHT22;62328;51.19929245;4.42130175;2023-04-25T08:42:06;12.20;99.90
8780;DHT22;62328;51.19929245;4.42130175;2023-04-25T08:44:33;12.40;99.90
8780;DHT22;62328;51.19929245;4.42130175;2023-04-25T08:47:04;12.60;99.90
8780;DHT22;62328;51.19929245;4.42130175;2023-04-25T08:49:32;12.70;99.90
8780;DHT22;62328;51.19929245;4.42130175;2023-04-25T08:52:02;12.70;99.90
8780;DHT22;62328;51.19929245;4.42130175;2023-04-25T08:54:31;12.70;99.90
8780;DHT22;62328;51.19929245;4.42130175;2023-04-25T08:57:01;12.80;99.90
8780;DHT22;62328;51.19929245;4.42130175;2023-04-25T08:59:30;12.80;99.90
8780;DHT22;62328;51.19929245;4.42130175;2023-04-25T09:01:57;12.90;99.90
8780;DHT22;62328;51.19929245;4.42130175;2023-04-25T09:04:26;13.10;99.90
8780;DHT22;62328;51.19929245;4.42130175;2023-04-25T09:06:53;13.10;99.90
8780;DHT22;62328;51.19929245;4.42130175;2023-04-25T09:09:20;13.10;99.90
8780;DHT22;62328;51.19929245;4.42130175;2023-04-25T09:11:48;13.00;99.90
8780;DHT22;62328;51.19929245;4.42130175;2023-04-25T09:14:16;12.90;99.90
8780;DHT22;62328;51.19929245;4.42130175;2023-04-25T09:17:00;13.00;99.90
8780;DHT22;62328;51.19929245;4.42130175;2023-04-25T09:19:30;13.00;99.90
8780;DHT22;62328;51.19929245;4.42130175;2023-04-25T09:22:02;13.00;99.90
8780;DHT22;62328;51.19929245;4.42130175;2023-04-25T09:24:34;12.90;99.90
8780;DHT22;62328;51.19929245;4.42130175;2023-04-25T09:27:04;12.80;99.90
8780;DHT22;62328;51.19929245;4.42130175;2023-04-25T09:29:31;12.80;99.90
8780;DHT22;62328;51.19929245;4.42130175;2023-04-25T09:32:18;12.90;99.90
8780;DHT22;62328;51.19929245;4.42130175;2023-04-25T09:34:47;13.20;99.90
8780;DHT22;62328;51.19929245;4.42130175;2023-04-25T09:37:18;13.40;99.90
8780;DHT22;62328;51.19929245;4.42130175;2023-04-25T09:39:47;13.40;99.90
8780;DHT22;62328;51.19929245;4.42130175;2023-04-25T09:42:15;13.40;99.90
8780;DHT22;62328;51.19929245;4.42130175;2023-04-25T09:44:43;13.30;99.90
8780;DHT22;62328;51.19929245;4.42130175;2023-04-25T09:47:12;13.10;99.90
8780;DHT22;62328;51.19929245;4.42130175;2023-04-25T09:49:41;12.90;99.90
8780;DHT22;62328;51.19929245;4.42130175;2023-04-25T09:52:14;12.70;99.90
8780;DHT22;62328;51.19929245;4.42130175;2023-04-25T09:54:44;12.50;99.90
8780;DHT22;62328;51.19929245;4.42130175;2023-04-25T09:57:12;12.50;99.90
8780;DHT22;62328;51.19929245;4.42130175;2023-04-25T09:59:43;12.40;99.90
8780;DHT22;62328;51.19929245;4.42130175;2023-04-25T10:02:12;12.30;99.90
8780;DHT22;62328;51.19929245;4.42130175;2023-04-25T10:04:41;12.30;99.90
8780;DHT22;62328;51.19929245;4.42130175;2023-04-25T10:07:08;12.40;99.90
8780;DHT22;62328;51.19929245;4.42130175;2023-04-25T10:09:39;12.60;99.90
8780;DHT22;62328;51.19929245;4.42130175;2023-04-25T10:12:07;12.60;99.90
8780;DHT22;62328;51.19929245;4.42130175;2023-04-25T10:14:34;12.60;99.90
8780;DHT22;62328;51.19929245;4.42130175;2023-04-25T10:17:02;12.60;99.90
8780;DHT22;62328;51.19929245;4.42130175;2023-04-25T10:19:29;12.50;99.90
8780;DHT22;62328;51.19929245;4.42130175;2023-04-25T10:22:04;12.40;99.90
8780;DHT22;62328;51.19929245;4.42130175;2023-04-25T10:24:32;12.30;99.90
8780;DHT22;62328;51.19929245;4.42130175;2023-04-25T10:27:01;12.20;99.90
8780;DHT22;62328;51.19929245;4.42130175;2023-04-25T10:29:29;12.10;99.90
8780;DHT22;62328;51.19929245;4.42130175;2023-04-25T10:31:57;12.10;99.90
8780;DHT22;62328;51.19929245;4.42130175;2023-04-25T10:34:25;12.20;99.90
8780;DHT22;62328;51.19929245;4.42130175;2023-04-25T10:37:04;12.30;99.90
8780;DHT22;62328;51.19929245;4.42130175;2023-04-25T10:39:32;12.30;99.90
8780;DHT22;62328;51.19929245;4.42130175;2023-04-25T10:42:02;12.30;99.90
8780;DHT22;62328;51.19929245;4.42130175;2023-04-25T10:44:30;12.20;99.90
8780;DHT22;62328;51.19929245;4.42130175;2023-04-25T10:46:58;12.20;99.90
8780;DHT22;62328;51.19929245;4.42130175;2023-04-25T10:49:30;12.20;99.90
8780;DHT22;62328;51.19929245;4.42130175;2023-04-25T10:52:17;12.30;99.90
8780;DHT22;62328;51.19929245;4.42130175;2023-04-25T10:54:49;12.60;99.90
8780;DHT22;62328;51.19929245;4.42130175;2023-04-25T10:57:35;12.80;99.90
8780;DHT22;62328;51.19929245;4.42130175;2023-04-25T11:00:08;13.10;99.90
8780;DHT22;62328;51.19929245;4.42130175;2023-04-25T11:02:43;13.50;99.90
8780;DHT22;62328;51.19929245;4.42130175;2023-04-25T11:05:23;13.80;99.90
8780;DHT22;62328;51.19929245;4.42130175;2023-04-25T11:07:56;13.90;99.90
8780;DHT22;62328;51.19929245;4.42130175;2023-04-25T11:10:25;13.90;99.90
8780;DHT22;62328;51.19929245;4.42130175;2023-04-25T11:12:56;13.80;99.90
8780;DHT22;62328;51.19929245;4.42130175;2023-04-25T11:15:26;13.70;99.90
8780;DHT22;62328;51.19929245;4.42130175;2023-04-25T11:17:53;13.70;99.90
8780;DHT22;62328;51.19929245;4.42130175;2023-04-25T11:20:21;13.80;99.90
8780;DHT22;62328;51.19929245;4.42130175;2023-04-25T11:22:50;13.80;99.90
8780;DHT22;62328;51.19929245;4.42130175;2023-04-25T11:25:18;14.00;99.90
8780;DHT22;62328;51.19929245;4.42130175;2023-04-25T11:27:54;14.00;99.90
8780;DHT22;62328;51.19929245;4.42130175;2023-04-25T11:30:22;14.00;99.90
8780;DHT22;62328;51.19929245;4.42130175;2023-04-25T11:32:50;14.10;99.90
8780;DHT22;62328;51.19929245;4.42130175;2023-04-25T11:35:17;14.10;99.90
8780;DHT22;62328;51.19929245;4.42130175;2023-04-25T11:37:44;14.00;99.90
8780;DHT22;62328;51.19929245;4.42130175;2023-04-25T11:40:12;14.10;99.90
8780;DHT22;62328;51.19929245;4.42130175;2023-04-25T11:42:41;14.20;99.90
8780;DHT22;62328;51.19929245;4.42130175;2023-04-25T11:45:11;14.30;99.90
8780;DHT22;62328;51.19929245;4.42130175;2023-04-25T11:47:38;14.50;99.90
8780;DHT22;62328;51.19929245;4.42130175;2023-04-25T11:50:07;14.60;99.90
8780;DHT22;62328;51.19929245;4.42130175;2023-04-25T11:52:38;14.60;99.90
8780;DHT22;62328;51.19929245;4.42130175;2023-04-25T11:55:08;14.50;99.90
8780;DHT22;62328;51.19929245;4.42130175;2023-04-25T11:57:37;14.40;99.90
8780;DHT22;62328;51.19929245;4.42130175;2023-04-25T12:00:14;14.30;99.90
8780;DHT22;62328;51.19929245;4.42130175;2023-04-25T12:02:43;14.30;99.90
8780;DHT22;62328;51.19929245;4.42130175;2023-04-25T12:05:11;14.40;99.90
8780;DHT22;62328;51.19929245;4.42130175;2023-04-25T12:07:38;14.50;99.90
8780;DHT22;62328;51.19929245;4.42130175;2023-04-25T12:10:08;14.60;99.90
8780;DHT22;62328;51.19929245;4.42130175;2023-04-25T12:12:36;14.60;99.90
8780;DHT22;62328;51.19929245;4.42130175;2023-04-25T12:15:12;14.60;99.90
8780;DHT22;62328;51.19929245;4.42130175;2023-04-25T12:17:42;14.70;99.90
8780;DHT22;62328;51.19929245;4.42130175;2023-04-25T12:20:10;14.80;99.90
8780;DHT22;62328;51.19929245;4.42130175;2023-04-25T12:22:38;14.80;99.90
8780;DHT22;62328;51.19929245;4.42130175;2023-04-25T12:25:10;14.60;99.90
8780;DHT22;62328;51.19929245;4.42130175;2023-04-25T12:27:38;14.50;99.90
8780;DHT22;62328;51.19929245;4.42130175;2023-04-25T12:30:07;14.50;99.90
8780;DHT22;62328;51.19929245;4.42130175;2023-04-25T12:32:35;14.90;99.90
8780;DHT22;62328;51.19929245;4.42130175;2023-04-25T12:35:03;15.20;99.90
8780;DHT22;62328;51.19929245;4.42130175;2023-04-25T12:37:30;15.40;99.90
8780;DHT22;62328;51.19929245;4.42130175;2023-04-25T12:39:58;15.50;99.90
8780;DHT22;62328;51.19929245;4.42130175;2023-04-25T12:42:24;15.40;99.90
8780;DHT22;62328;51.19929245;4.42130175;2023-04-25T12:44:51;14.90;99.90
8780;DHT22;62328;51.19929245;4.42130175;2023-04-25T12:47:18;14.60;99.90
8780;DHT22;62328;51.19929245;4.42130175;2023-04-25T12:49:47;14.40;99.90
8780;DHT22;62328;51.19929245;4.42130175;2023-04-25T12:52:14;14.30;99.90
8780;DHT22;62328;51.19929245;4.42130175;2023-04-25T12:54:41;14.50;99.90
8780;DHT22;62328;51.19929245;4.42130175;2023-04-25T12:57:08;14.50;99.90
8780;DHT22;62328;51.19929245;4.42130175;2023-04-25T12:59:36;14.50;99.90
8780;DHT22;62328;51.19929245;4.42130175;2023-04-25T13:02:03;14.60;99.90
8780;DHT22;62328;51.19929245;4.42130175;2023-04-25T13:04:30;14.90;99.90
8780;DHT22;62328;51.19929245;4.42130175;2023-04-25T13:06:59;15.10;99.90
8780;DHT22;62328;51.19929245;4.42130175;2023-04-25T13:09:26;15.20;99.90
8780;DHT22;62328;51.19929245;4.42130175;2023-04-25T13:11:53;15.30;99.90
8780;DHT22;62328;51.19929245;4.42130175;2023-04-25T13:14:21;15.50;99.90
8780;DHT22;62328;51.19929245;4.42130175;2023-04-25T13:16:48;15.70;99.90
8780;DHT22;62328;51.19929245;4.42130175;2023-04-25T13:19:15;15.90;99.90
8780;DHT22;62328;51.19929245;4.42130175;2023-04-25T13:21:42;16.00;99.90
8780;DHT22;62328;51.19929245;4.42130175;2023-04-25T13:24:10;16.20;99.90
8780;DHT22;62328;51.19929245;4.42130175;2023-04-25T13:26:37;16.30;99.90
8780;DHT22;62328;51.19929245;4.42130175;2023-04-25T13:29:04;16.40;99.90
8780;DHT22;62328;51.19929245;4.42130175;2023-04-25T13:31:33;16.20;99.90
8780;DHT22;62328;51.19929245;4.42130175;2023-04-25T13:34:01;16.20;99.90
8780;DHT22;62328;51.19929245;4.42130175;2023-04-25T13:36:28;16.20;99.90
8780;DHT22;62328;51.19929245;4.42130175;2023-04-25T13:38:55;16.20;99.90
8780;DHT22;62328;51.19929245;4.42130175;2023-04-25T13:41:23;16.40;99.90